Hlavní strana
METAR-TAF:

METAR-TAF

Letiště :

Ammán-Queen Alia, Jordánsko

zeměpisná šířka: 31-40N, zeměpisná délka: 035-58E, výška: 721 m

Aktuální stav počasí

Zpráva byla vytvořena před 1 hodinou a 7 minutami, v 04:00 UTC
Bezvětří
Teplota 6°C
Vlhkost vzduchu 100%
Tlak 1016 hPa
Viditelnost: 3000 m
kouřmo

METAR: OJAI 070400Z 00000KT 3000 BR NSC 06/06 Q1016 NOSIG

Čas: 08:07 (05:07 UTC)

Předpověď počasí

Zpráva byla vytvořena před 6 hodinami a 17 minutami, v 22:50 UTC
Předpověď platná od 07 v 00 UTC do 08 v 06 UTC
vítr z různých směrů 2 kt
Viditelnost: 6000 m
Pravděpodobnost 40%
od 07 v 03 UTC do 07 v 05 UTC
Viditelnost: 3000 m
kouřmo
Změna
od 07 v 06 UTC do 07 v 08 UTC
Západoseverozápadní vítr 10 kt
Viditelnost: 5000 m
Skoro jasno ve výšce 3500 ft
zákal

TAF: OJAI 062250Z 0700/0806 VRB02KT 6000 NSC PROB40 0703/0705 3000 BR BECMG 0706/0708 29010KT 5000 HZ FEW035

Stav a předpovědi počasí z více než 4 000 letišť (zprávy METAR a TAF).

Červené a žluté tečky na mapě představují dostupné meteorologické stanice.

Když kurzor umístíte na tečku, zobrazí se název stanice.

Pak kliknutím zobrazíte stav a předpověď počasí.

Chcete-li změnit mapu, kliknutím na zelené tlačítko se znaménkem +mapu přiblížíte, kliknutím na zelené tlačítko se znaménkem – mapu oddálíte a kliknutím na zelené šipky přejdete na sousední mapy.


METAR-TAF: